createdAt,value
2022-10-12T00:01:57.734Z,13.38
2022-10-12T00:04:24.150Z,13.37
2022-10-12T00:06:50.569Z,13.41
2022-10-12T00:09:17.056Z,13.42
2022-10-12T00:11:43.890Z,13.43
2022-10-12T00:14:10.315Z,13.45
2022-10-12T00:16:36.890Z,13.48
2022-10-12T00:19:03.477Z,13.48
2022-10-12T00:21:30.429Z,13.46
2022-10-12T00:23:58.889Z,13.48
2022-10-12T00:26:26.398Z,13.48
2022-10-12T00:28:59.409Z,13.51
2022-10-12T00:31:27.434Z,13.51
2022-10-12T00:33:55.043Z,13.52
2022-10-12T00:36:33.920Z,13.52
2022-10-12T00:39:01.552Z,13.53
2022-10-12T00:41:35.842Z,13.52
2022-10-12T00:44:02.674Z,13.48
2022-10-12T00:46:42.085Z,13.41
2022-10-12T00:49:14.259Z,13.37
2022-10-12T00:51:43.545Z,13.31
2022-10-12T00:54:15.216Z,13.30
2022-10-12T00:56:44.025Z,13.26
2022-10-12T00:59:18.844Z,13.26
2022-10-12T01:01:45.662Z,13.25
2022-10-12T01:04:12.429Z,13.22
2022-10-12T01:06:39.074Z,13.22
2022-10-12T01:09:05.461Z,13.22
2022-10-12T01:11:31.825Z,13.21
2022-10-12T01:13:58.418Z,13.17
2022-10-12T01:16:37.211Z,13.12
2022-10-12T01:19:15.613Z,13.13
2022-10-12T01:21:48.253Z,13.12
2022-10-12T01:24:34.490Z,13.13
2022-10-12T01:27:03.235Z,13.14
2022-10-12T01:30:10.069Z,13.17
2022-10-12T01:32:48.292Z,13.19
2022-10-12T01:35:33.663Z,13.17
2022-10-12T01:38:09.015Z,13.18
2022-10-12T01:40:51.096Z,13.18
2022-10-12T01:43:18.336Z,13.13
2022-10-12T01:45:44.825Z,13.07
2022-10-12T01:48:11.334Z,13.04
2022-10-12T01:50:56.039Z,13.03
2022-10-12T01:53:38.953Z,12.98
2022-10-12T01:56:26.918Z,12.95
2022-10-12T01:59:21.168Z,12.91
2022-10-12T02:02:05.857Z,12.88
2022-10-12T02:04:44.286Z,12.81
2022-10-12T02:07:20.993Z,12.80
2022-10-12T02:09:47.883Z,12.78
2022-10-12T02:12:19.257Z,12.76
2022-10-12T02:14:49.962Z,12.73
2022-10-12T02:17:20.371Z,12.71
2022-10-12T02:19:51.646Z,12.65
2022-10-12T02:22:18.141Z,12.63
2022-10-12T02:24:49.010Z,12.59
2022-10-12T02:27:18.269Z,12.60
2022-10-12T02:29:47.746Z,12.57
2022-10-12T02:32:23.819Z,12.60
2022-10-12T02:35:08.631Z,12.60
2022-10-12T02:37:40.605Z,12.58
2022-10-12T02:40:17.694Z,12.56
2022-10-12T02:43:09.899Z,12.60
2022-10-12T02:45:39.887Z,12.58
2022-10-12T02:48:09.356Z,12.59
2022-10-12T02:50:36.388Z,12.61
2022-10-12T02:53:03.264Z,12.59
2022-10-12T02:55:31.049Z,12.57
2022-10-12T02:57:57.474Z,12.55
2022-10-12T03:00:23.929Z,12.51
2022-10-12T03:02:50.323Z,12.47
2022-10-12T03:05:16.741Z,12.46
2022-10-12T03:07:43.172Z,12.46
2022-10-12T03:10:09.832Z,12.44
2022-10-12T03:12:36.222Z,12.45
2022-10-12T03:15:02.633Z,12.42
2022-10-12T03:17:28.998Z,12.41
2022-10-12T03:19:55.440Z,12.39
2022-10-12T03:22:21.945Z,12.39
2022-10-12T03:24:48.491Z,12.38
2022-10-12T03:27:14.895Z,12.35
2022-10-12T03:29:41.265Z,12.39
2022-10-12T03:32:07.628Z,12.42
2022-10-12T03:34:34.104Z,12.43
2022-10-12T03:37:00.583Z,12.42
2022-10-12T03:39:26.992Z,12.38
2022-10-12T03:41:53.354Z,12.40
2022-10-12T03:44:19.839Z,12.39
2022-10-12T03:46:46.241Z,12.41
2022-10-12T03:49:12.643Z,12.43
2022-10-12T03:51:39.000Z,12.46
2022-10-12T03:54:05.451Z,12.45
2022-10-12T03:56:31.847Z,12.49
2022-10-12T03:58:58.324Z,12.44
2022-10-12T04:01:25.641Z,12.51
2022-10-12T04:03:52.064Z,12.58
2022-10-12T04:06:18.522Z,12.58
2022-10-12T04:08:50.510Z,12.56
2022-10-12T04:11:17.537Z,12.56
2022-10-12T04:13:44.073Z,12.52
2022-10-12T04:16:10.674Z,12.52
2022-10-12T04:18:37.061Z,12.50
2022-10-12T04:21:08.835Z,12.45
2022-10-12T04:23:35.190Z,12.42
2022-10-12T04:26:01.542Z,12.43
2022-10-12T04:28:27.928Z,12.44
2022-10-12T04:30:54.439Z,12.45
2022-10-12T04:33:20.803Z,12.49
2022-10-12T04:35:47.250Z,12.48
2022-10-12T04:38:13.891Z,12.49
2022-10-12T04:40:40.376Z,12.48
2022-10-12T04:43:06.714Z,12.48
2022-10-12T04:45:33.081Z,12.47
2022-10-12T04:47:59.447Z,12.45
2022-10-12T04:50:29.825Z,12.40
2022-10-12T04:52:56.484Z,12.41
2022-10-12T04:55:22.895Z,12.43
2022-10-12T04:57:50.050Z,12.43
2022-10-12T05:00:17.208Z,12.43
2022-10-12T05:02:43.688Z,12.43
2022-10-12T05:05:10.576Z,12.42
2022-10-12T05:07:37.229Z,12.50
2022-10-12T05:10:04.274Z,12.53
2022-10-12T05:12:30.690Z,12.56
2022-10-12T05:14:57.053Z,12.58
2022-10-12T05:17:23.458Z,12.60
2022-10-12T05:19:49.895Z,12.62
2022-10-12T05:22:16.306Z,12.65
2022-10-12T05:24:42.685Z,12.63
2022-10-12T05:27:09.064Z,12.63
2022-10-12T05:29:35.475Z,12.65
2022-10-12T05:32:01.856Z,12.67
2022-10-12T05:34:28.247Z,12.69
2022-10-12T05:36:55.210Z,12.72
2022-10-12T05:39:21.585Z,12.75
2022-10-12T05:41:47.997Z,12.74
2022-10-12T05:44:14.365Z,12.73
2022-10-12T05:46:40.747Z,12.75
2022-10-12T05:49:08.057Z,12.77
2022-10-12T05:51:34.448Z,12.78
2022-10-12T05:54:00.861Z,12.76
2022-10-12T05:56:27.220Z,12.76
2022-10-12T05:58:53.589Z,12.78
2022-10-12T06:01:20.036Z,12.80
2022-10-12T06:03:46.386Z,12.83
2022-10-12T06:06:12.960Z,12.84
2022-10-12T06:08:39.527Z,12.84
2022-10-12T06:11:06.643Z,12.87
2022-10-12T06:13:33.016Z,12.87
2022-10-12T06:15:59.486Z,12.86
2022-10-12T06:18:25.867Z,12.86
2022-10-12T06:21:14.898Z,12.87
2022-10-12T06:23:41.104Z,12.88
2022-10-12T06:26:07.525Z,12.91
2022-10-12T06:28:34.055Z,12.94
2022-10-12T06:31:01.036Z,12.94
2022-10-12T06:33:28.189Z,12.92
2022-10-12T06:35:55.331Z,12.96
2022-10-12T06:38:22.616Z,12.99
2022-10-12T06:40:49.345Z,13.00
2022-10-12T06:43:15.734Z,13.05
2022-10-12T06:45:42.129Z,13.05
2022-10-12T06:48:08.689Z,13.05
2022-10-12T06:50:35.241Z,13.05
2022-10-12T06:53:01.786Z,13.02
2022-10-12T06:55:28.431Z,13.05
2022-10-12T06:57:55.611Z,13.08
2022-10-12T07:00:22.257Z,13.06
2022-10-12T07:02:50.059Z,13.06
2022-10-12T07:05:16.737Z,13.05
2022-10-12T07:07:43.229Z,13.02
2022-10-12T07:10:09.902Z,13.05
2022-10-12T07:12:37.419Z,13.07
2022-10-12T07:15:05.440Z,13.12
2022-10-12T07:17:31.829Z,13.16
2022-10-12T07:19:58.198Z,13.19
2022-10-12T07:22:24.598Z,13.17
2022-10-12T07:24:50.953Z,13.20
2022-10-12T07:27:17.316Z,13.22
2022-10-12T07:29:43.757Z,13.24
2022-10-12T07:32:10.183Z,13.34
2022-10-12T07:34:36.633Z,13.41
2022-10-12T07:37:03.033Z,13.49
2022-10-12T07:39:29.742Z,13.53
2022-10-12T07:41:56.702Z,13.55
2022-10-12T07:44:24.377Z,13.57
2022-10-12T07:46:51.445Z,13.57
2022-10-12T07:49:18.401Z,13.58
2022-10-12T07:51:46.225Z,13.63
2022-10-12T07:54:19.008Z,13.66
2022-10-12T07:56:46.986Z,13.70
2022-10-12T07:59:13.367Z,13.76
2022-10-12T08:01:39.788Z,13.82
2022-10-12T08:04:06.241Z,13.88
2022-10-12T08:06:34.044Z,13.93
2022-10-12T08:09:01.554Z,13.94
2022-10-12T08:11:28.719Z,13.98
2022-10-12T08:13:55.986Z,13.92
2022-10-12T08:16:22.746Z,13.97
2022-10-12T08:18:49.216Z,13.94
2022-10-12T08:21:17.203Z,13.99
2022-10-12T08:23:46.828Z,14.02
2022-10-12T08:26:14.621Z,14.03
2022-10-12T08:28:41.215Z,14.03
2022-10-12T08:31:13.891Z,14.02
2022-10-12T08:33:40.398Z,14.03
2022-10-12T08:36:07.531Z,14.05
2022-10-12T08:38:38.542Z,14.10
2022-10-12T08:41:19.754Z,14.18
2022-10-12T08:44:11.669Z,14.25
2022-10-12T08:46:38.271Z,14.35
2022-10-12T08:49:12.976Z,14.43
2022-10-12T08:51:49.724Z,14.49
2022-10-12T08:54:20.607Z,14.53
2022-10-12T08:56:47.017Z,14.46
2022-10-12T08:59:16.533Z,14.50
2022-10-12T09:01:49.105Z,14.48
2022-10-12T09:04:34.189Z,14.47
2022-10-12T09:07:20.625Z,14.57
2022-10-12T09:10:05.858Z,14.66
2022-10-12T09:12:52.678Z,14.67
2022-10-12T09:15:26.865Z,14.64
2022-10-12T09:17:55.726Z,14.67
2022-10-12T09:20:47.196Z,14.66
2022-10-12T09:23:24.978Z,14.60
2022-10-12T09:26:01.794Z,14.55
2022-10-12T09:28:37.940Z,14.52
2022-10-12T09:31:33.175Z,14.50
2022-10-12T09:34:03.955Z,14.51
2022-10-12T09:36:48.153Z,14.53
2022-10-12T09:39:30.846Z,14.51
2022-10-12T09:41:57.286Z,14.51
2022-10-12T09:44:36.711Z,14.51
2022-10-12T09:47:23.687Z,14.53
2022-10-12T09:49:58.774Z,14.52
2022-10-12T09:52:29.654Z,14.55
2022-10-12T09:55:02.541Z,14.60
2022-10-12T09:57:35.844Z,14.60
2022-10-12T10:00:08.216Z,14.63
2022-10-12T10:02:48.456Z,14.67
2022-10-12T10:05:31.358Z,14.59
2022-10-12T10:08:23.438Z,14.55
2022-10-12T10:10:57.012Z,14.55
2022-10-12T10:13:28.017Z,14.55
2022-10-12T10:16:06.505Z,14.60
2022-10-12T10:18:36.309Z,14.63
2022-10-12T10:21:06.152Z,14.64
2022-10-12T10:23:44.578Z,14.65
2022-10-12T10:26:14.619Z,14.65
2022-10-12T10:28:46.938Z,14.68
2022-10-12T10:31:13.276Z,14.68
2022-10-12T10:33:40.806Z,14.63
2022-10-12T10:36:24.055Z,14.69
2022-10-12T10:38:59.183Z,14.70
2022-10-12T10:41:31.404Z,14.72
2022-10-12T10:43:57.901Z,14.73
2022-10-12T10:46:27.724Z,14.75
2022-10-12T10:49:06.587Z,14.69
2022-10-12T10:52:00.014Z,14.63
2022-10-12T10:54:30.686Z,14.64
2022-10-12T10:57:14.582Z,14.63
2022-10-12T10:59:50.054Z,14.66
2022-10-12T11:02:38.227Z,14.68
2022-10-12T11:05:13.335Z,14.68
2022-10-12T11:07:47.614Z,14.76
2022-10-12T11:10:27.698Z,14.82
2022-10-12T11:13:02.993Z,14.88
2022-10-12T11:15:45.728Z,14.93
2022-10-12T11:18:33.693Z,14.99
2022-10-12T11:21:23.627Z,14.96
2022-10-12T11:24:14.802Z,15.00
2022-10-12T11:26:49.942Z,14.98
2022-10-12T11:29:18.035Z,14.95
2022-10-12T11:32:03.362Z,14.97
2022-10-12T11:34:37.362Z,14.97
2022-10-12T11:37:19.123Z,15.00
2022-10-12T11:39:51.139Z,15.02
2022-10-12T11:42:30.995Z,15.02
2022-10-12T11:45:00.625Z,15.00
2022-10-12T11:47:30.104Z,14.98
2022-10-12T11:50:07.512Z,14.97
2022-10-12T11:52:44.985Z,14.96
2022-10-12T11:55:35.163Z,14.93
2022-10-12T11:58:13.710Z,14.89
2022-10-12T12:00:57.145Z,14.93
2022-10-12T12:03:43.782Z,14.97
2022-10-12T12:06:28.515Z,15.03
2022-10-12T12:08:54.825Z,15.03
2022-10-12T12:11:27.760Z,15.03
2022-10-12T12:14:26.446Z,15.03
2022-10-12T12:17:15.256Z,15.04
2022-10-12T12:19:43.289Z,15.04
2022-10-12T12:22:32.423Z,15.07
2022-10-12T12:25:10.330Z,15.06
2022-10-12T12:27:56.289Z,15.06
2022-10-12T12:30:38.720Z,15.09
2022-10-12T12:33:33.155Z,15.11
2022-10-12T12:36:06.506Z,15.14
2022-10-12T12:38:37.316Z,15.11
2022-10-12T12:41:12.667Z,15.05
2022-10-12T12:44:04.162Z,15.04
2022-10-12T12:46:52.165Z,15.00
2022-10-12T12:49:38.227Z,15.03
2022-10-12T12:52:10.711Z,15.07
2022-10-12T12:54:53.239Z,15.09
2022-10-12T12:57:29.186Z,15.12
2022-10-12T13:00:06.477Z,15.18
2022-10-12T13:02:57.408Z,15.22
2022-10-12T13:06:00.885Z,15.17
2022-10-12T13:08:36.388Z,15.18
2022-10-12T13:11:24.589Z,15.18
2022-10-12T13:14:25.185Z,15.22
2022-10-12T13:17:33.089Z,15.21
2022-10-12T13:20:09.563Z,15.17
2022-10-12T13:22:36.158Z,15.09
2022-10-12T13:25:07.003Z,15.06
2022-10-12T13:27:44.981Z,15.03
2022-10-12T13:30:11.793Z,15.04
2022-10-12T13:32:44.171Z,15.07
2022-10-12T13:35:29.201Z,15.10
2022-10-12T13:38:13.881Z,15.14
2022-10-12T13:40:43.911Z,15.15
2022-10-12T13:43:47.253Z,15.17
2022-10-12T13:46:36.214Z,15.11
2022-10-12T13:49:04.297Z,15.11
2022-10-12T13:51:31.083Z,15.13
2022-10-12T13:53:57.824Z,15.15
2022-10-12T13:56:28.775Z,15.20
2022-10-12T13:59:05.459Z,15.19
2022-10-12T14:01:48.309Z,15.19
2022-10-12T14:04:14.729Z,15.07
2022-10-12T14:06:41.131Z,15.11
2022-10-12T14:09:11.554Z,15.08
2022-10-12T14:11:38.770Z,15.04
2022-10-12T14:14:06.208Z,15.03
2022-10-12T14:16:32.616Z,15.05
2022-10-12T14:19:21.293Z,15.00
2022-10-12T14:21:49.201Z,14.99
2022-10-12T14:24:19.189Z,15.01
2022-10-12T14:26:53.974Z,15.00
2022-10-12T14:29:42.850Z,15.01
2022-10-12T14:32:12.282Z,15.05
2022-10-12T14:34:45.606Z,15.12
2022-10-12T14:37:15.052Z,15.18
2022-10-12T14:39:47.118Z,15.20
2022-10-12T14:42:26.641Z,15.20
2022-10-12T14:44:53.675Z,15.22
2022-10-12T14:47:39.887Z,15.24
2022-10-12T14:50:09.560Z,15.20
2022-10-12T14:52:41.901Z,15.18
2022-10-12T14:55:21.459Z,15.16
2022-10-12T14:57:48.928Z,15.11
2022-10-12T15:00:29.608Z,15.13
2022-10-12T15:02:56.371Z,15.15
2022-10-12T15:05:25.073Z,15.17
2022-10-12T15:07:52.133Z,15.16
2022-10-12T15:10:21.497Z,15.15
2022-10-12T15:12:48.867Z,15.14
2022-10-12T15:15:30.914Z,15.18
2022-10-12T15:17:58.336Z,15.21
2022-10-12T15:20:26.776Z,15.24
2022-10-12T15:22:53.243Z,15.26
2022-10-12T15:25:34.950Z,15.27
2022-10-12T15:28:02.261Z,15.23
2022-10-12T15:30:28.642Z,15.21
2022-10-12T15:32:55.011Z,15.20
2022-10-12T15:35:26.798Z,15.21
2022-10-12T15:37:56.190Z,15.20
2022-10-12T15:40:22.849Z,15.18
2022-10-12T15:42:49.220Z,15.16
2022-10-12T15:45:26.530Z,15.17
2022-10-12T15:47:53.606Z,15.16
2022-10-12T15:50:25.193Z,15.12
2022-10-12T15:52:51.694Z,15.13
2022-10-12T15:55:29.721Z,15.12
2022-10-12T15:57:57.162Z,15.09
2022-10-12T16:00:26.381Z,15.08
2022-10-12T16:02:54.029Z,15.04
2022-10-12T16:05:30.930Z,15.01
2022-10-12T16:07:58.090Z,14.95
2022-10-12T16:10:34.662Z,14.90
2022-10-12T16:13:01.085Z,14.87
2022-10-12T16:15:31.085Z,14.84
2022-10-12T16:17:58.477Z,14.77
2022-10-12T16:20:26.362Z,14.72
2022-10-12T16:22:52.962Z,14.64
2022-10-12T16:25:22.172Z,14.56
2022-10-12T16:27:49.287Z,14.52
2022-10-12T16:30:15.856Z,14.47
2022-10-12T16:32:42.291Z,14.48
2022-10-12T16:35:10.588Z,14.45
2022-10-12T16:37:37.076Z,14.45
2022-10-12T16:40:05.175Z,14.47
2022-10-12T16:42:31.556Z,14.48
2022-10-12T16:44:58.111Z,14.48
2022-10-12T16:47:25.523Z,14.45
2022-10-12T16:49:53.803Z,14.47
2022-10-12T16:52:24.396Z,14.48
2022-10-12T16:54:54.942Z,14.47
2022-10-12T16:57:22.498Z,14.46
2022-10-12T16:59:49.565Z,14.43
2022-10-12T17:02:17.606Z,14.40
2022-10-12T17:04:45.760Z,14.40
2022-10-12T17:07:12.226Z,14.40
2022-10-12T17:09:38.589Z,14.38
2022-10-12T17:12:05.124Z,14.34
2022-10-12T17:14:31.668Z,14.32
2022-10-12T17:16:58.067Z,14.31
2022-10-12T17:19:30.085Z,14.28
2022-10-12T17:21:59.287Z,14.27
2022-10-12T17:24:28.408Z,14.25
2022-10-12T17:26:55.848Z,14.22
2022-10-12T17:29:23.388Z,14.21
2022-10-12T17:31:50.500Z,14.22
2022-10-12T17:34:38.846Z,14.22
2022-10-12T17:37:08.225Z,14.18
2022-10-12T17:39:38.232Z,14.16
2022-10-12T17:42:05.399Z,14.14
2022-10-12T17:44:32.185Z,14.11
2022-10-12T17:46:58.898Z,14.10
2022-10-12T17:49:26.681Z,14.07
2022-10-12T17:51:53.048Z,14.01
2022-10-12T17:54:20.984Z,14.00
2022-10-12T17:56:47.549Z,13.97
2022-10-12T17:59:16.389Z,13.93
2022-10-12T18:01:43.107Z,13.92
2022-10-12T18:04:10.506Z,13.85
2022-10-12T18:06:36.915Z,13.85
2022-10-12T18:09:05.265Z,13.80
2022-10-12T18:11:32.263Z,13.82
2022-10-12T18:13:58.746Z,13.80
2022-10-12T18:16:31.448Z,13.77
2022-10-12T18:18:59.173Z,13.74
2022-10-12T18:21:27.256Z,13.66
2022-10-12T18:23:54.385Z,13.58
2022-10-12T18:26:22.131Z,13.54
2022-10-12T18:28:55.491Z,13.46
2022-10-12T18:31:26.179Z,13.41
2022-10-12T18:33:52.915Z,13.33
2022-10-12T18:36:20.454Z,13.28
2022-10-12T18:38:47.397Z,13.22
2022-10-12T18:41:17.695Z,13.16
2022-10-12T18:43:44.703Z,13.13
2022-10-12T18:46:13.937Z,13.10
2022-10-12T18:48:40.848Z,13.05
2022-10-12T18:51:15.632Z,12.96
2022-10-12T18:53:42.162Z,12.88
2022-10-12T18:56:09.863Z,12.83
2022-10-12T18:58:38.163Z,12.82
2022-10-12T19:01:12.478Z,12.81
2022-10-12T19:03:39.111Z,12.77
2022-10-12T19:06:09.078Z,12.74
2022-10-12T19:08:36.700Z,12.73
2022-10-12T19:11:05.551Z,12.69
2022-10-12T19:13:32.054Z,12.67
2022-10-12T19:16:03.840Z,12.61
2022-10-12T19:18:30.251Z,12.60
2022-10-12T19:20:56.658Z,12.58
2022-10-12T19:23:23.029Z,12.54
2022-10-12T19:25:49.598Z,12.51
2022-10-12T19:28:16.054Z,12.47
2022-10-12T19:30:42.449Z,12.41
2022-10-12T19:33:08.835Z,12.36
2022-10-12T19:35:38.545Z,12.32
2022-10-12T19:38:05.428Z,12.29
2022-10-12T19:40:34.714Z,12.26
2022-10-12T19:43:01.469Z,12.24
2022-10-12T19:45:27.820Z,12.23
2022-10-12T19:47:54.201Z,12.21
2022-10-12T19:50:20.593Z,12.21
2022-10-12T19:52:47.005Z,12.18
2022-10-12T19:55:13.512Z,12.14
2022-10-12T19:57:40.135Z,12.07
2022-10-12T20:00:08.591Z,12.03
2022-10-12T20:02:38.569Z,11.97
2022-10-12T20:05:05.262Z,11.95
2022-10-12T20:07:31.622Z,11.86
2022-10-12T20:09:58.012Z,11.82
2022-10-12T20:12:25.195Z,11.68
2022-10-12T20:14:51.616Z,11.65
2022-10-12T20:17:18.037Z,11.62
2022-10-12T20:19:44.446Z,11.60
2022-10-12T20:22:10.830Z,11.59
2022-10-12T20:24:37.251Z,11.59
2022-10-12T20:27:03.693Z,11.60
2022-10-12T20:29:30.089Z,11.59
2022-10-12T20:31:56.489Z,11.56
2022-10-12T20:34:22.877Z,11.55
2022-10-12T20:36:49.358Z,11.55
2022-10-12T20:39:15.784Z,11.55
2022-10-12T20:41:42.155Z,11.56
2022-10-12T20:44:10.154Z,11.53
2022-10-12T20:46:36.958Z,11.52
2022-10-12T20:49:04.016Z,11.51
2022-10-12T20:51:33.681Z,11.49
2022-10-12T20:54:01.010Z,11.46
2022-10-12T20:56:31.697Z,11.42
2022-10-12T20:58:58.587Z,11.36
2022-10-12T21:01:26.115Z,11.36
2022-10-12T21:03:53.452Z,11.33
2022-10-12T21:06:21.448Z,11.28
2022-10-12T21:08:53.145Z,11.25
2022-10-12T21:11:20.123Z,11.24
2022-10-12T21:13:47.030Z,11.21
2022-10-12T21:16:14.071Z,11.19
2022-10-12T21:18:41.557Z,11.17
2022-10-12T21:21:12.175Z,11.13
2022-10-12T21:23:43.739Z,11.14
2022-10-12T21:26:12.390Z,11.15
2022-10-12T21:28:39.346Z,11.14
2022-10-12T21:31:06.462Z,11.14
2022-10-12T21:33:34.278Z,11.07
2022-10-12T21:36:11.923Z,11.16
2022-10-12T21:38:39.408Z,11.17
2022-10-12T21:41:07.427Z,11.19
2022-10-12T21:43:34.972Z,11.22
2022-10-12T21:46:09.883Z,11.28
2022-10-12T21:48:36.712Z,11.30
2022-10-12T21:51:04.083Z,11.17
2022-10-12T21:53:30.671Z,11.24
2022-10-12T21:55:57.352Z,11.25
2022-10-12T21:58:23.786Z,11.32
2022-10-12T22:00:50.313Z,11.34
2022-10-12T22:03:16.704Z,11.36
2022-10-12T22:05:44.424Z,11.40
2022-10-12T22:08:10.940Z,11.43
2022-10-12T22:10:38.904Z,11.55
2022-10-12T22:13:06.846Z,11.65
2022-10-12T22:15:34.250Z,11.72
2022-10-12T22:18:09.529Z,11.81
2022-10-12T22:20:36.999Z,11.92
2022-10-12T22:23:04.006Z,12.00
2022-10-12T22:25:30.433Z,12.08
2022-10-12T22:27:56.799Z,12.14
2022-10-12T22:30:23.174Z,12.18
2022-10-12T22:32:49.572Z,12.19
2022-10-12T22:35:16.057Z,12.25
2022-10-12T22:37:43.069Z,12.28
2022-10-12T22:40:10.015Z,12.31
2022-10-12T22:42:36.399Z,12.30
2022-10-12T22:45:04.135Z,12.32
2022-10-12T22:47:30.519Z,12.35
2022-10-12T22:49:58.590Z,12.37
2022-10-12T22:52:24.965Z,12.38
2022-10-12T22:54:51.358Z,12.39
2022-10-12T22:57:17.786Z,12.40
2022-10-12T22:59:44.156Z,12.41
2022-10-12T23:02:10.571Z,12.43
2022-10-12T23:04:36.960Z,12.46
2022-10-12T23:07:03.319Z,12.46
2022-10-12T23:09:29.734Z,12.50
2022-10-12T23:11:56.438Z,12.47
2022-10-12T23:14:22.788Z,12.47
2022-10-12T23:16:49.165Z,12.47
2022-10-12T23:19:15.623Z,12.45
2022-10-12T23:21:42.028Z,12.48
2022-10-12T23:24:09.419Z,12.49
2022-10-12T23:26:35.831Z,12.49
2022-10-12T23:29:02.239Z,12.51
2022-10-12T23:31:30.470Z,12.53
2022-10-12T23:34:04.913Z,12.52
2022-10-12T23:36:33.507Z,12.51
2022-10-12T23:39:01.128Z,12.50
2022-10-12T23:41:27.567Z,12.50
2022-10-12T23:43:53.966Z,12.49
2022-10-12T23:46:20.554Z,12.46
2022-10-12T23:48:46.937Z,12.46
2022-10-12T23:51:13.394Z,12.41
2022-10-12T23:53:42.398Z,12.39
2022-10-12T23:56:09.573Z,12.38
2022-10-12T23:58:36.436Z,12.35
